createdAt,value
2022-11-12T00:01:16.871Z,99355.3699568232
2022-11-12T00:11:16.218Z,99359.87623321448
2022-11-12T00:21:16.081Z,99350.19766522925
2022-11-12T00:31:16.168Z,99340.73783222993
2022-11-12T00:41:16.035Z,99336.46692833873
2022-11-12T00:51:16.223Z,99324.36578138097
2022-11-12T01:01:17.081Z,99322.96008782284
2022-11-12T01:11:19.681Z,99304.99946078827
2022-11-12T01:21:16.136Z,99307.77009988883
2022-11-12T01:31:18.732Z,99313.09877967252
2022-11-12T01:41:19.376Z,99302.83034626415
2022-11-12T01:51:19.590Z,99292.85151616616
2022-11-12T02:01:16.544Z,99287.85002131575
2022-11-12T02:11:19.037Z,99275.92086421781
2022-11-12T02:21:19.256Z,99268.84663521528
2022-11-12T02:31:16.142Z,99258.49469196657
2022-11-12T02:41:17.004Z,99249.60227167237
2022-11-12T02:51:15.860Z,99247.42878102555
2022-11-12T03:01:16.860Z,99243.35153627481
2022-11-12T03:11:16.665Z,99233.01518894841
2022-11-12T03:21:17.110Z,99231.80873763842
2022-11-12T03:31:16.350Z,99223.70367896942
2022-11-12T03:41:16.822Z,99219.31025367291
2022-11-12T03:51:18.050Z,99209.4344366408
2022-11-12T04:01:17.176Z,99213.83696065411
2022-11-12T04:11:16.555Z,99203.96790460388
2022-11-12T04:22:22.006Z,99197.12902761267
2022-11-12T04:31:16.775Z,99201.93512297457
2022-11-12T04:52:21.734Z,99172.85917183448
2022-11-12T05:01:16.031Z,99178.02677621155
2022-11-12T05:11:17.534Z,99181.74652713077
2022-11-12T05:31:16.935Z,99148.3699838213
2022-11-12T05:41:19.891Z,99131.83541144324
2022-11-12T05:51:16.260Z,99129.4139329141
2022-11-12T06:01:16.217Z,99140.3697993496
2022-11-12T06:11:17.330Z,99142.18028296674
2022-11-12T06:21:24.000Z,99157.88275375337
2022-11-12T06:31:18.042Z,99142.14909319222
2022-11-12T06:41:16.021Z,99140.02376689068
2022-11-12T06:51:19.599Z,99144.48402190678
2022-11-12T07:01:17.573Z,99138.1583410071
2022-11-12T07:11:17.887Z,99137.69974650981
2022-11-12T07:21:18.356Z,99130.29191337738
2022-11-12T07:31:18.331Z,99133.77359809556
2022-11-12T07:41:18.500Z,99132.28975610259
2022-11-12T07:51:19.124Z,99131.2096131188
2022-11-12T08:01:23.999Z,99147.44973205503
2022-11-12T08:11:15.882Z,99137.33586218387
2022-11-12T08:21:18.744Z,99126.18998094654
2022-11-12T08:31:19.171Z,99144.43483273064
2022-11-12T08:41:16.839Z,99141.61815726575
2022-11-12T08:51:16.263Z,99149.60876535637
2022-11-12T09:01:16.282Z,99149.39106963146
2022-11-12T09:11:16.220Z,99151.74922419728
2022-11-12T09:21:18.406Z,99145.48287886671
2022-11-12T09:31:16.493Z,99135.76976970704
2022-11-12T09:41:25.106Z,99143.50418368127
2022-11-12T09:51:24.620Z,99124.24572719504
2022-11-12T10:01:23.120Z,99094.10571122689
2022-11-12T10:11:44.964Z,99081.04603257142
2022-11-12T10:21:30.001Z,99061.52980029286
2022-11-12T10:31:19.714Z,99067.56724407831
2022-11-12T10:41:20.008Z,99085.06859414172
2022-11-12T10:51:25.828Z,99076.73655543248
2022-11-12T11:01:17.580Z,99063.24319717761
2022-11-12T11:11:20.747Z,99050.39967627234
2022-11-12T11:21:29.049Z,99036.79263652998
2022-11-12T11:41:30.934Z,99002.90329781099
2022-11-12T11:51:35.721Z,98986.72293739348
2022-11-12T12:01:25.692Z,98972.5370904921
2022-11-12T12:11:21.754Z,98944.56839558417
2022-11-12T12:21:18.026Z,98941.43594099853
2022-11-12T12:31:21.205Z,98926.14653854903
2022-11-12T12:41:21.820Z,98916.9407900688
2022-11-12T12:51:16.647Z,98907.50443284329
2022-11-12T13:01:30.722Z,98887.5205356862
2022-11-12T13:13:01.556Z,98872.85955161828
2022-11-12T13:21:18.582Z,98855.99111440999
2022-11-12T13:31:26.753Z,98843.04347152081
2022-11-12T13:41:20.710Z,98842.9579459792
2022-11-12T13:51:28.601Z,98847.07040391209
2022-11-12T14:01:20.597Z,98832.52983119877
2022-11-12T14:11:47.992Z,98814.72371019359
2022-11-12T14:21:17.390Z,98802.37149328338
2022-11-12T14:31:24.273Z,98777.63568746096
2022-11-12T14:41:20.190Z,98764.93581844494
2022-11-12T14:51:21.786Z,98748.01600928578
2022-11-12T15:01:55.723Z,98738.52459016738
2022-11-12T15:11:24.921Z,98719.68198620703
2022-11-12T15:21:22.790Z,98718.99107603137
2022-11-12T15:31:19.569Z,98716.85684053639
2022-11-12T15:41:24.011Z,98726.88367139813
2022-11-12T15:51:16.851Z,98720.78391546382
2022-11-12T16:01:16.919Z,98724.34261686858
2022-11-12T16:11:36.101Z,98751.79672225082
2022-11-12T16:21:20.689Z,98770.48995726164
2022-11-12T16:31:17.192Z,98770.65918654602
2022-11-12T16:41:16.388Z,98767.7057176527
2022-11-12T16:51:19.551Z,98775.24011900408
2022-11-12T17:01:24.387Z,98774.60465497835
2022-11-12T17:11:17.113Z,98755.629678157
2022-11-12T17:21:18.229Z,98753.1419796125
2022-11-12T17:31:19.106Z,98738.37006886603
2022-11-12T17:41:16.599Z,98765.64757193543
2022-11-12T17:51:19.064Z,98751.68903047158
2022-11-12T18:01:20.372Z,98741.10080167485
2022-11-12T18:11:16.726Z,98742.47516575539
2022-11-12T18:21:16.704Z,98737.4217867621
2022-11-12T18:31:16.052Z,98749.13672759818
2022-11-12T18:41:19.100Z,98731.80925330328
2022-11-12T18:51:18.664Z,98730.50405202793
2022-11-12T19:01:19.220Z,98728.35086806167
2022-11-12T19:11:22.242Z,98712.70888530806
2022-11-12T19:21:21.254Z,98709.1986037248
2022-11-12T19:31:18.030Z,98714.88024568789
2022-11-12T19:41:19.903Z,98723.36540973219
2022-11-12T19:51:18.583Z,98727.79486800716
2022-11-12T20:01:17.807Z,98734.17636212842
2022-11-12T20:11:16.991Z,98751.79585615991
2022-11-12T20:21:16.867Z,98755.059285999
2022-11-12T20:31:19.111Z,98755.6594094381
2022-11-12T20:41:18.860Z,98753.50504122298
2022-11-12T20:51:24.327Z,98753.40073196881
2022-11-12T21:01:19.190Z,98753.0663846137
2022-11-12T21:11:18.397Z,98745.85934363978
2022-11-12T21:21:18.538Z,98751.70879685484
2022-11-12T21:31:17.723Z,98753.33632700317
2022-11-12T21:41:18.037Z,98755.83627832726
2022-11-12T21:51:18.571Z,98761.85164133224
2022-11-12T22:01:19.536Z,98768.05560266924
2022-11-12T22:11:16.400Z,98773.82652788416
2022-11-12T22:21:18.824Z,98768.46978151552
2022-11-12T22:31:19.310Z,98757.321692668
2022-11-12T22:41:18.276Z,98747.72438504953
2022-11-12T22:51:18.894Z,98741.34147184076
2022-11-12T23:01:19.555Z,98732.73956760038
2022-11-12T23:11:18.441Z,98728.80717515435
2022-11-12T23:21:18.898Z,98719.13400696928
2022-11-12T23:31:20.085Z,98714.78566371865
2022-11-12T23:41:19.111Z,98703.28616905652
2022-11-12T23:51:19.954Z,98697.88144538841
